Weather at Dunnottar Airfield

Public forecast

Using degrees Celsius for public forecast. Weather courtesy of forecast.io.

Closest aviation weather report (METAR) to Dunnottar Airfield

Closest report is Springs Airfield, 7.3 nm (13.5 km) NNW. Retrieved 2021/01/28 00:00 UTC (1 hour ago):

FASI 280000Z AUTO 03002KT //// // ////// 19/17 Q1020

Closest aviation forecast (TAF) to Dunnottar Airfield

Closest forecast is OR Tambo International Airport, 17.6 nm (32.5 km) NW. Retrieved 2021-01-28 00:00 UTC (1 hour ago):

TAF FAOR 272200Z 2800/2906 VRB03KT 9999 BKN010 TX24/2811Z TN17/2803Z PROB30 TEMPO 2803/2809 4000 BR SHRA BKN006 FEW030TCU PROB30 TEMPO 2806/2809 -TSRA FEW030CB FM280900 33010KT 9999 BKN025 PROB40 TEMPO 2809/2814 5000 TSRA FEW030CB PROB30 TEMPO 2814/2821 -TSRA FEW030CB BECMG 2815/2817 09010KT BECMG 2821/2823 BKN010 PROB30 TEMPO 2823/2906 4500 SHRA BKN005